Time;durP1;ratioP1;P1;durP2;ratioP2;P2;SDS_P1;SDS_P2;PMS_P1;PMS_P2;Temp;Humidity;BMP_temperature;BMP_pressure;BME280_temperature;BME280_humidity;BME280_pressure;Samples;Min_cycle;Max_cycle;Signal;HPM_P1;HPM_P2
2022/08/15 00:01:36;;;;;;;3.80;2.93;;;21.30;99.90;;;;;;494021;241;28906;-69
2022/08/15 00:03:35;;;;;;;3.23;2.77;;;21.30;99.90;;;;;;493924;241;28908;-69
2022/08/15 00:05:37;;;;;;;8.23;2.87;;;21.30;99.90;;;;;;494017;241;28832;-69
2022/08/15 00:07:38;;;;;;;4.97;3.40;;;21.30;99.90;;;;;;493934;241;29093;-70
2022/08/15 00:09:39;;;;;;;3.23;2.83;;;21.20;99.90;;;;;;493948;241;28825;-69
2022/08/15 00:11:40;;;;;;;2.90;2.70;;;21.20;99.90;;;;;;494020;241;28824;-70
2022/08/15 00:13:42;;;;;;;5.60;3.00;;;21.20;99.90;;;;;;494033;241;28840;-73
2022/08/15 00:15:43;;;;;;;4.13;3.10;;;21.20;99.90;;;;;;494017;241;29279;-68
2022/08/15 00:17:44;;;;;;;3.60;2.90;;;21.20;99.90;;;;;;493967;241;29398;-70
2022/08/15 00:19:47;;;;;;;3.97;2.90;;;21.20;99.90;;;;;;493973;241;29361;-69
2022/08/15 00:21:47;;;;;;;3.20;2.90;;;21.20;99.90;;;;;;493889;241;29395;-69
2022/08/15 00:23:48;;;;;;;3.67;3.37;;;21.20;99.90;;;;;;494024;237;28951;-69
2022/08/15 00:25:49;;;;;;;3.20;2.60;;;21.20;99.90;;;;;;494038;241;28894;-69
2022/08/15 00:27:51;;;;;;;3.37;3.00;;;21.20;99.90;;;;;;493927;241;28845;-72
2022/08/15 00:29:52;;;;;;;3.30;3.00;;;21.20;99.90;;;;;;494025;241;28906;-70
2022/08/15 00:31:56;;;;;;;3.00;2.80;;;21.10;99.90;;;;;;493979;241;28840;-69
2022/08/15 00:33:54;;;;;;;3.57;2.87;;;21.10;99.90;;;;;;493787;239;28860;-72
2022/08/15 00:35:55;;;;;;;3.53;2.67;;;21.10;99.90;;;;;;493836;241;28825;-69
2022/08/15 00:37:57;;;;;;;2.90;2.70;;;21.10;99.90;;;;;;493988;241;28922;-70
2022/08/15 00:39:58;;;;;;;3.23;2.93;;;21.10;99.90;;;;;;493988;241;28817;-68
2022/08/15 00:42:00;;;;;;;3.33;3.10;;;21.10;99.90;;;;;;494006;241;29420;-70
2022/08/15 00:44:01;;;;;;;3.73;3.43;;;21.00;99.90;;;;;;493996;241;30030;-69
2022/08/15 00:46:02;;;;;;;3.57;3.27;;;20.90;99.90;;;;;;494019;241;29240;-70
2022/08/15 00:50:23;;;;;;;3.03;2.83;;;21.00;99.90;;;;;;494054;241;29335;-73
2022/08/15 00:52:24;;;;;;;3.73;2.90;;;21.00;99.90;;;;;;494040;241;29280;-69
2022/08/15 00:54:25;;;;;;;3.10;2.90;;;21.00;99.90;;;;;;494028;241;28912;-70
2022/08/15 00:56:27;;;;;;;2.80;2.60;;;21.00;99.90;;;;;;493901;241;28847;-70
2022/08/15 00:58:28;;;;;;;3.27;2.90;;;21.00;99.90;;;;;;493976;241;28922;-69
2022/08/15 01:00:29;;;;;;;3.27;2.90;;;20.90;99.90;;;;;;494012;241;28809;-69
2022/08/15 01:02:30;;;;;;;3.10;2.90;;;20.90;99.90;;;;;;493851;241;28883;-69
2022/08/15 01:04:32;;;;;;;2.90;2.70;;;20.90;99.90;;;;;;493831;241;28831;-70
2022/08/15 01:06:36;;;;;;;3.43;3.13;;;20.90;99.90;;;;;;493746;241;28815;-69
2022/08/15 01:08:34;;;;;;;2.97;2.77;;;20.90;99.90;;;;;;493696;241;28830;-68
2022/08/15 01:10:36;;;;;;;3.07;2.87;;;20.90;99.90;;;;;;494049;241;28906;-73
2022/08/15 01:12:37;;;;;;;3.00;2.80;;;20.90;99.90;;;;;;494001;241;29306;-69
2022/08/15 01:14:38;;;;;;;3.03;2.80;;;20.90;99.90;;;;;;494028;241;29308;-69
2022/08/15 01:16:39;;;;;;;3.17;2.87;;;20.90;99.90;;;;;;493936;241;29275;-69
2022/08/15 01:18:40;;;;;;;3.00;2.80;;;20.90;99.90;;;;;;494003;241;28929;-69
2022/08/15 01:20:43;;;;;;;2.83;2.40;;;20.90;99.90;;;;;;494028;241;28848;-72
2022/08/15 01:22:43;;;;;;;3.00;2.80;;;20.80;99.90;;;;;;493987;241;28954;-69
2022/08/15 01:24:44;;;;;;;5.07;3.37;;;20.90;99.90;;;;;;494029;241;28896;-71
2022/08/15 01:26:45;;;;;;;3.23;3.03;;;20.80;99.90;;;;;;493913;241;28805;-69
2022/08/15 01:28:47;;;;;;;4.97;3.50;;;20.70;99.90;;;;;;493985;241;28864;-69
2022/08/15 01:30:48;;;;;;;3.83;3.50;;;20.70;99.90;;;;;;494021;241;28927;-71
2022/08/15 01:32:49;;;;;;;6.13;3.57;;;20.70;99.90;;;;;;494011;241;28895;-69
2022/08/15 01:34:50;;;;;;;3.60;3.30;;;20.70;99.90;;;;;;494024;241;28846;-70
2022/08/15 01:36:52;;;;;;;3.57;3.27;;;20.60;99.90;;;;;;493745;241;29317;-69
2022/08/15 01:38:53;;;;;;;4.57;3.37;;;20.60;99.90;;;;;;494019;241;29312;-69
2022/08/15 01:40:54;;;;;;;7.20;3.47;;;20.50;99.90;;;;;;494049;241;29356;-74
2022/08/15 01:42:57;;;;;;;4.50;3.60;;;20.50;99.90;;;;;;494066;241;28796;-69
2022/08/15 01:44:57;;;;;;;7.10;3.33;;;20.40;99.90;;;;;;493927;241;28834;-70
2022/08/15 01:46:58;;;;;;;8.90;3.40;;;20.40;99.90;;;;;;493977;241;28805;-69
2022/08/15 01:48:59;;;;;;;4.43;3.00;;;20.40;99.90;;;;;;494050;241;28880;-69
2022/08/15 01:51:00;;;;;;;3.67;2.90;;;20.40;99.90;;;;;;494037;241;28828;-72
2022/08/15 01:53:02;;;;;;;5.70;3.50;;;20.40;99.90;;;;;;494053;241;28816;-68
2022/08/15 01:55:03;;;;;;;3.23;2.97;;;20.40;99.90;;;;;;494024;241;28971;-69
2022/08/15 01:57:04;;;;;;;3.73;3.40;;;20.40;99.90;;;;;;493956;241;28799;-68
2022/08/15 01:59:05;;;;;;;3.20;2.90;;;20.30;99.90;;;;;;494035;241;28956;-69
2022/08/15 02:01:07;;;;;;;4.63;3.53;;;20.30;99.90;;;;;;494029;241;29331;-72
2022/08/15 02:03:08;;;;;;;3.37;3.07;;;20.20;99.90;;;;;;494095;241;29217;-68
2022/08/15 02:05:09;;;;;;;3.83;3.40;;;20.20;99.90;;;;;;494078;241;29339;-68
2022/08/15 02:07:10;;;;;;;4.57;3.30;;;20.20;99.90;;;;;;493971;241;29283;-68
2022/08/15 02:09:12;;;;;;;3.83;3.53;;;20.20;99.90;;;;;;494049;241;28808;-69
2022/08/15 02:11:13;;;;;;;6.60;3.83;;;20.10;99.90;;;;;;494044;241;28837;-73
2022/08/15 02:13:15;;;;;;;4.13;3.70;;;20.10;99.90;;;;;;493992;241;28888;-69
2022/08/15 02:15:15;;;;;;;6.63;3.43;;;20.10;99.90;;;;;;494019;241;28853;-70
2022/08/15 02:17:17;;;;;;;3.90;3.60;;;20.00;99.90;;;;;;493931;241;28861;-69
2022/08/15 02:19:18;;;;;;;3.53;3.10;;;20.10;99.90;;;;;;493976;241;28867;-69
2022/08/15 02:21:20;;;;;;;3.90;3.50;;;20.10;99.90;;;;;;494032;241;28873;-72
2022/08/15 02:23:21;;;;;;;3.90;3.60;;;20.10;99.90;;;;;;494040;241;28885;-70
2022/08/15 02:25:23;;;;;;;8.33;3.97;;;20.00;99.90;;;;;;494019;241;28800;-69
2022/08/15 02:27:24;;;;;;;3.87;3.47;;;20.00;99.90;;;;;;493959;241;29326;-68
2022/08/15 02:29:25;;;;;;;3.80;3.50;;;20.00;99.90;;;;;;494054;241;29420;-71
2022/08/15 02:31:26;;;;;;;3.67;3.37;;;19.90;99.90;;;;;;494036;241;29800;-69
2022/08/15 02:33:28;;;;;;;3.97;3.47;;;19.90;99.90;;;;;;494038;241;29311;-70
2022/08/15 02:35:30;;;;;;;3.63;3.33;;;19.90;99.90;;;;;;493968;241;28792;-77
2022/08/15 02:37:30;;;;;;;4.30;3.90;;;19.90;99.90;;;;;;493904;241;28837;-69
2022/08/15 02:39:31;;;;;;;3.87;3.20;;;19.80;99.90;;;;;;494051;241;28969;-69
2022/08/15 02:41:33;;;;;;;4.87;3.90;;;19.90;99.90;;;;;;494040;241;28831;-68
2022/08/15 02:43:34;;;;;;;4.00;3.70;;;19.80;99.90;;;;;;494063;241;28844;-70
2022/08/15 02:45:38;;;;;;;3.83;3.50;;;19.70;99.90;;;;;;494010;241;28875;-69
2022/08/15 02:47:37;;;;;;;3.70;3.37;;;19.70;99.90;;;;;;493759;241;28865;-69
2022/08/15 02:49:38;;;;;;;3.77;3.47;;;19.60;99.90;;;;;;494029;237;29221;-72
2022/08/15 02:51:39;;;;;;;5.40;3.53;;;19.60;99.90;;;;;;494032;241;29371;-69
2022/08/15 02:53:40;;;;;;;3.47;3.17;;;19.50;99.90;;;;;;494016;241;29325;-70
2022/08/15 02:55:41;;;;;;;3.17;2.87;;;19.30;99.90;;;;;;494036;241;29314;-69
2022/08/15 02:57:43;;;;;;;3.83;3.20;;;19.30;99.90;;;;;;493976;241;29517;-69
2022/08/15 02:59:46;;;;;;;3.17;2.80;;;19.30;99.90;;;;;;494039;241;28829;-69
2022/08/15 03:01:45;;;;;;;3.50;3.20;;;19.20;99.90;;;;;;493864;237;28804;-69
2022/08/15 03:03:46;;;;;;;3.63;3.27;;;19.10;99.90;;;;;;494042;241;28862;-71
2022/08/15 03:05:48;;;;;;;3.70;3.13;;;19.00;99.90;;;;;;494031;241;28797;-68
2022/08/15 03:07:49;;;;;;;3.00;2.80;;;19.00;99.90;;;;;;493956;241;28927;-69
2022/08/15 03:09:50;;;;;;;3.33;3.00;;;19.00;99.90;;;;;;494021;241;28934;-69
2022/08/15 03:11:52;;;;;;;3.93;3.23;;;18.90;99.90;;;;;;494075;241;28812;-68
2022/08/15 03:13:53;;;;;;;2.90;2.70;;;18.80;99.90;;;;;;494067;241;28826;-70
2022/08/15 03:15:56;;;;;;;3.63;2.93;;;18.80;99.90;;;;;;494052;241;28839;-70
2022/08/15 03:17:55;;;;;;;3.73;2.93;;;18.70;99.90;;;;;;493897;241;29391;-70
2022/08/15 03:19:57;;;;;;;2.90;2.67;;;18.70;99.90;;;;;;494055;241;30130;-69
2022/08/15 03:21:58;;;;;;;3.10;2.90;;;18.80;99.90;;;;;;494048;241;29250;-69
2022/08/15 03:23:59;;;;;;;7.87;3.00;;;18.70;99.90;;;;;;494054;241;28833;-70
2022/08/15 03:26:00;;;;;;;2.97;2.73;;;18.60;99.90;;;;;;494029;241;28789;-69
2022/08/15 03:28:02;;;;;;;2.70;2.50;;;18.70;99.90;;;;;;494008;241;28875;-70
2022/08/15 03:30:03;;;;;;;3.60;2.77;;;18.60;99.90;;;;;;494007;241;28825;-68
2022/08/15 03:32:04;;;;;;;2.87;2.60;;;18.60;99.90;;;;;;494057;241;28799;-69
2022/08/15 03:34:05;;;;;;;3.30;2.93;;;18.60;99.90;;;;;;494017;241;28839;-72
2022/08/15 03:36:07;;;;;;;4.10;3.17;;;18.60;99.90;;;;;;493908;241;28935;-69
2022/08/15 03:38:08;;;;;;;3.83;2.67;;;18.50;99.90;;;;;;493938;241;28951;-70
2022/08/15 03:40:09;;;;;;;4.07;3.47;;;18.50;99.90;;;;;;494003;241;28825;-69
2022/08/15 03:42:10;;;;;;;2.80;2.60;;;18.50;99.90;;;;;;494046;241;29391;-70
2022/08/15 03:44:12;;;;;;;3.90;2.90;;;18.40;99.90;;;;;;493883;241;29283;-73
2022/08/15 03:46:13;;;;;;;2.93;2.73;;;18.50;99.90;;;;;;493933;241;29249;-69
2022/08/15 03:48:14;;;;;;;2.80;2.60;;;18.50;99.90;;;;;;494019;241;28851;-70
2022/08/15 03:50:16;;;;;;;2.30;2.20;;;18.40;99.90;;;;;;493993;241;28895;-69
2022/08/15 03:52:17;;;;;;;2.83;2.63;;;18.30;99.90;;;;;;494046;241;28839;-70
2022/08/15 03:54:18;;;;;;;3.43;2.80;;;18.30;99.90;;;;;;494041;241;28973;-72
2022/08/15 03:56:19;;;;;;;2.90;2.70;;;18.30;99.90;;;;;;493960;241;28814;-70
2022/08/15 03:58:20;;;;;;;2.60;2.40;;;18.20;99.90;;;;;;493997;241;28842;-73
2022/08/15 04:00:22;;;;;;;2.67;2.57;;;18.30;99.90;;;;;;494005;241;28835;-72
2022/08/15 04:02:24;;;;;;;2.83;2.63;;;18.30;99.90;;;;;;494013;241;28913;-69
2022/08/15 04:04:24;;;;;;;3.40;2.70;;;18.20;99.90;;;;;;493986;241;28939;-69
2022/08/15 04:06:25;;;;;;;3.00;2.80;;;18.20;99.90;;;;;;493981;241;29269;-69
2022/08/15 04:08:30;;;;;;;2.77;2.57;;;18.10;99.90;;;;;;494013;241;29342;-69
2022/08/15 04:10:28;;;;;;;3.10;2.90;;;18.00;99.90;;;;;;493767;241;30027;-68
2022/08/15 04:12:29;;;;;;;5.00;3.40;;;18.10;99.90;;;;;;494036;241;29235;-69
2022/08/15 04:14:30;;;;;;;3.10;2.87;;;18.00;99.90;;;;;;494023;241;28817;-71
2022/08/15 04:16:32;;;;;;;3.40;3.10;;;18.00;99.90;;;;;;493956;241;28802;-69
2022/08/15 04:18:33;;;;;;;4.17;3.57;;;17.90;99.90;;;;;;493981;241;29332;-70
2022/08/15 04:20:34;;;;;;;3.90;3.50;;;17.80;99.90;;;;;;493996;241;29044;-68
2022/08/15 04:22:35;;;;;;;3.30;3.10;;;17.80;99.90;;;;;;493946;241;28929;-69
2022/08/15 04:24:37;;;;;;;3.70;3.40;;;17.90;99.90;;;;;;494031;241;29007;-71
2022/08/15 04:26:38;;;;;;;3.60;3.30;;;17.90;99.90;;;;;;493967;241;28904;-69
2022/08/15 04:28:39;;;;;;;4.37;3.87;;;17.80;99.90;;;;;;493986;241;28831;-70
2022/08/15 04:30:40;;;;;;;3.70;3.40;;;17.70;99.90;;;;;;494025;241;28808;-70
2022/08/15 04:32:42;;;;;;;3.67;3.37;;;17.70;99.90;;;;;;494043;241;29266;-69
2022/08/15 04:34:43;;;;;;;4.03;3.73;;;17.80;99.90;;;;;;494055;241;29395;-71
2022/08/15 04:36:46;;;;;;;3.40;3.10;;;17.70;99.90;;;;;;493929;241;29273;-69
2022/08/15 04:38:46;;;;;;;3.60;3.30;;;17.80;99.90;;;;;;493894;241;28841;-70
2022/08/15 04:40:47;;;;;;;4.87;3.63;;;17.80;99.90;;;;;;493938;241;28980;-69
2022/08/15 04:42:48;;;;;;;3.90;3.60;;;17.80;99.90;;;;;;494029;241;28818;-69
2022/08/15 04:44:49;;;;;;;3.60;3.30;;;17.80;99.90;;;;;;494002;241;28914;-71
2022/08/15 04:46:51;;;;;;;4.00;3.40;;;17.70;99.90;;;;;;493964;241;28809;-69
2022/08/15 04:48:52;;;;;;;3.73;3.47;;;17.60;99.90;;;;;;494014;241;28850;-70
2022/08/15 04:50:53;;;;;;;4.10;3.80;;;17.60;99.90;;;;;;494013;241;28914;-69
2022/08/15 04:52:54;;;;;;;4.00;2.83;;;17.50;99.90;;;;;;494019;241;28805;-69
2022/08/15 04:54:57;;;;;;;5.90;3.13;;;17.50;99.90;;;;;;494043;241;28851;-70
2022/08/15 04:56:57;;;;;;;3.20;3.00;;;17.50;99.90;;;;;;493792;241;29473;-69
2022/08/15 04:58:58;;;;;;;3.43;3.13;;;17.60;99.90;;;;;;493985;241;29352;-70
2022/08/15 05:00:59;;;;;;;3.57;3.37;;;17.70;99.90;;;;;;493982;241;29275;-69
2022/08/15 05:03:00;;;;;;;3.30;3.10;;;17.80;99.90;;;;;;493971;241;28901;-69
2022/08/15 05:05:02;;;;;;;3.60;3.30;;;17.80;99.90;;;;;;494034;241;28867;-72
2022/08/15 05:07:03;;;;;;;4.77;3.20;;;17.80;99.90;;;;;;493981;241;28809;-68
2022/08/15 05:09:04;;;;;;;3.50;3.30;;;17.90;99.90;;;;;;493977;241;28836;-70
2022/08/15 05:11:05;;;;;;;4.10;3.17;;;17.80;99.90;;;;;;493910;241;28788;-69
2022/08/15 05:13:07;;;;;;;6.57;3.30;;;17.80;99.90;;;;;;493975;241;28988;-68
2022/08/15 05:15:08;;;;;;;3.43;3.17;;;17.80;99.90;;;;;;494046;241;28875;-71
2022/08/15 05:17:09;;;;;;;3.80;3.20;;;17.80;99.90;;;;;;493969;241;28841;-68
2022/08/15 05:19:10;;;;;;;3.53;2.97;;;17.90;99.90;;;;;;494047;241;28844;-69
2022/08/15 05:21:12;;;;;;;3.33;3.13;;;17.90;99.90;;;;;;494015;241;29251;-69
2022/08/15 05:23:13;;;;;;;3.70;3.37;;;17.80;99.90;;;;;;494047;241;29327;-70
2022/08/15 05:25:14;;;;;;;3.23;2.97;;;17.80;99.90;;;;;;494057;241;29418;-72
2022/08/15 05:27:15;;;;;;;2.60;2.50;;;17.80;99.90;;;;;;493995;241;29256;-69
2022/08/15 05:29:17;;;;;;;2.90;2.70;;;17.80;99.90;;;;;;494059;241;28825;-71
2022/08/15 05:31:18;;;;;;;3.10;2.90;;;17.80;99.90;;;;;;494057;241;28887;-70
2022/08/15 05:33:19;;;;;;;2.80;2.60;;;17.90;99.90;;;;;;494043;241;28823;-70
2022/08/15 05:35:20;;;;;;;4.50;3.40;;;17.90;99.90;;;;;;494072;241;28920;-73
2022/08/15 05:37:22;;;;;;;2.77;2.63;;;17.90;99.90;;;;;;493934;241;28899;-70
2022/08/15 05:39:23;;;;;;;2.93;2.73;;;17.90;99.90;;;;;;494047;241;28827;-70
2022/08/15 05:41:24;;;;;;;3.17;2.97;;;17.90;99.90;;;;;;494024;241;28787;-70
2022/08/15 05:43:25;;;;;;;3.33;3.03;;;17.80;99.90;;;;;;494033;241;28848;-69
2022/08/15 05:45:27;;;;;;;3.47;3.17;;;17.90;99.90;;;;;;494076;241;28851;-73
2022/08/15 05:47:28;;;;;;;3.33;3.13;;;17.80;99.90;;;;;;494036;241;29264;-70
2022/08/15 05:49:29;;;;;;;3.43;3.13;;;17.80;99.90;;;;;;494066;241;29309;-71
2022/08/15 05:51:30;;;;;;;3.63;2.90;;;17.70;99.90;;;;;;494032;241;29365;-69
2022/08/15 05:53:32;;;;;;;3.30;3.00;;;17.80;99.90;;;;;;494030;241;28813;-70
2022/08/15 05:55:33;;;;;;;3.77;3.47;;;17.80;99.90;;;;;;494050;241;28821;-72
2022/08/15 05:57:34;;;;;;;4.53;3.00;;;17.70;99.90;;;;;;493996;241;28789;-69
2022/08/15 05:59:35;;;;;;;4.10;3.30;;;17.70;99.90;;;;;;494043;241;28829;-72
2022/08/15 06:01:37;;;;;;;4.90;3.20;;;17.80;99.90;;;;;;494031;241;28826;-70
2022/08/15 06:03:38;;;;;;;3.80;3.40;;;17.80;99.90;;;;;;494017;241;28937;-69
2022/08/15 06:05:39;;;;;;;4.20;3.20;;;17.90;99.90;;;;;;494022;238;28818;-73
2022/08/15 06:07:40;;;;;;;3.93;3.27;;;17.80;99.90;;;;;;493985;241;28805;-69
2022/08/15 06:09:42;;;;;;;3.90;3.60;;;17.90;99.90;;;;;;494056;241;28832;-71
2022/08/15 06:11:43;;;;;;;3.80;3.50;;;18.00;99.90;;;;;;494051;241;29336;-69
2022/08/15 06:13:44;;;;;;;4.20;3.87;;;18.00;99.90;;;;;;494047;241;29507;-69
2022/08/15 06:15:47;;;;;;;4.00;3.30;;;18.10;99.90;;;;;;494048;241;29594;-72
2022/08/15 06:17:48;;;;;;;3.30;3.10;;;18.40;99.90;;;;;;493898;241;28857;-70
2022/08/15 06:19:48;;;;;;;3.03;2.83;;;18.50;99.90;;;;;;493986;241;28864;-71
2022/08/15 06:21:49;;;;;;;3.43;3.20;;;18.60;99.90;;;;;;494043;241;28819;-69
2022/08/15 06:23:50;;;;;;;3.60;3.30;;;18.60;99.90;;;;;;494018;241;28868;-70
2022/08/15 06:25:52;;;;;;;3.87;3.57;;;18.50;99.90;;;;;;493999;241;28850;-69
2022/08/15 06:27:53;;;;;;;3.40;3.20;;;18.40;99.90;;;;;;493986;241;28882;-69
2022/08/15 06:29:54;;;;;;;3.70;3.40;;;18.40;99.90;;;;;;494011;241;28968;-71
2022/08/15 06:31:57;;;;;;;3.33;3.13;;;18.50;99.90;;;;;;494015;241;28798;-69
2022/08/15 06:33:57;;;;;;;3.50;3.20;;;18.50;99.90;;;;;;493927;241;28843;-71
2022/08/15 06:35:58;;;;;;;2.90;2.70;;;18.50;99.90;;;;;;493932;241;30368;-73
2022/08/15 06:37:59;;;;;;;3.53;3.30;;;18.50;99.90;;;;;;493970;241;29227;-70
2022/08/15 06:40:01;;;;;;;3.23;2.80;;;18.40;99.90;;;;;;494043;241;29391;-72
2022/08/15 06:42:03;;;;;;;3.77;3.47;;;18.40;99.90;;;;;;494045;241;29400;-69
2022/08/15 06:44:03;;;;;;;3.23;3.03;;;18.40;99.90;;;;;;493939;241;28813;-71
2022/08/15 06:46:04;;;;;;;3.10;2.90;;;18.30;99.90;;;;;;494030;241;28837;-72
2022/08/15 06:48:05;;;;;;;3.93;3.23;;;18.40;99.90;;;;;;494045;241;28803;-69
2022/08/15 06:50:07;;;;;;;3.50;3.20;;;18.50;99.90;;;;;;494040;241;28856;-70
2022/08/15 06:52:08;;;;;;;3.17;2.97;;;18.40;99.90;;;;;;494034;241;28879;-70
2022/08/15 06:54:11;;;;;;;3.70;3.40;;;18.40;99.90;;;;;;494043;241;28821;-70
2022/08/15 06:56:11;;;;;;;4.03;3.63;;;18.50;99.90;;;;;;493919;241;28842;-71
2022/08/15 06:58:12;;;;;;;4.50;3.70;;;18.40;99.90;;;;;;494040;241;28903;-69
2022/08/15 07:00:14;;;;;;;4.10;3.70;;;18.50;99.90;;;;;;494050;241;29301;-70
2022/08/15 07:02:15;;;;;;;4.03;3.73;;;18.40;99.90;;;;;;494042;241;29310;-69
2022/08/15 07:04:16;;;;;;;4.07;3.63;;;18.40;99.90;;;;;;493993;241;29414;-70
2022/08/15 07:06:17;;;;;;;4.13;3.83;;;18.30;99.90;;;;;;494013;241;29391;-70
2022/08/15 07:08:18;;;;;;;3.60;3.30;;;18.30;99.90;;;;;;494080;241;28800;-72
2022/08/15 07:10:19;;;;;;;3.80;3.50;;;18.40;99.90;;;;;;494066;241;28838;-70
2022/08/15 07:12:21;;;;;;;4.10;3.80;;;18.50;99.90;;;;;;494068;241;28788;-69
2022/08/15 07:14:22;;;;;;;4.57;3.87;;;18.40;99.90;;;;;;494062;241;28907;-70
2022/08/15 07:16:23;;;;;;;3.77;3.57;;;18.60;99.90;;;;;;494004;241;28909;-73
2022/08/15 07:18:24;;;;;;;3.70;3.40;;;18.70;99.90;;;;;;494047;241;28801;-70
2022/08/15 07:20:26;;;;;;;5.40;3.23;;;18.60;99.90;;;;;;494040;241;28906;-70
2022/08/15 07:22:27;;;;;;;3.37;3.17;;;18.60;99.90;;;;;;494040;241;28857;-69
2022/08/15 07:24:28;;;;;;;4.00;3.43;;;18.60;99.90;;;;;;494000;241;28852;-70
2022/08/15 07:26:29;;;;;;;3.97;3.67;;;18.40;99.90;;;;;;493979;241;29304;-72
2022/08/15 07:28:31;;;;;;;3.67;3.40;;;18.40;99.90;;;;;;494051;241;29239;-69
2022/08/15 07:30:32;;;;;;;4.77;4.37;;;18.40;99.90;;;;;;494016;241;29476;-70
2022/08/15 07:32:33;;;;;;;4.40;4.00;;;18.40;99.90;;;;;;494048;241;28798;-69
2022/08/15 07:34:36;;;;;;;3.73;3.43;;;18.30;99.90;;;;;;494053;241;28831;-69
2022/08/15 07:36:36;;;;;;;3.90;3.60;;;18.40;99.90;;;;;;493774;241;28845;-72
2022/08/15 07:38:37;;;;;;;4.10;3.70;;;18.50;99.90;;;;;;494015;241;28839;-70
2022/08/15 07:40:38;;;;;;;3.50;3.20;;;18.60;99.90;;;;;;494013;241;28935;-70
2022/08/15 07:42:40;;;;;;;6.27;3.83;;;18.70;99.90;;;;;;494018;241;28806;-69
2022/08/15 07:44:41;;;;;;;4.00;3.70;;;18.90;99.90;;;;;;494031;241;28859;-69
2022/08/15 07:46:44;;;;;;;3.90;3.60;;;19.00;99.90;;;;;;493954;241;28833;-70
2022/08/15 07:48:43;;;;;;;3.50;3.30;;;19.20;99.90;;;;;;493863;241;28889;-70
2022/08/15 07:50:44;;;;;;;3.67;3.37;;;19.40;99.90;;;;;;494015;241;29421;-70
2022/08/15 07:52:47;;;;;;;3.83;3.53;;;19.60;99.90;;;;;;494039;241;30007;-69
2022/08/15 07:54:47;;;;;;;3.80;3.60;;;19.70;99.90;;;;;;493981;241;29311;-70
2022/08/15 07:56:48;;;;;;;5.53;3.90;;;19.90;99.90;;;;;;493970;241;28919;-72
2022/08/15 07:58:49;;;;;;;4.37;3.97;;;20.00;99.90;;;;;;494025;241;28838;-70
2022/08/15 08:00:52;;;;;;;4.43;4.13;;;20.10;99.90;;;;;;494037;241;28953;-71
2022/08/15 08:02:53;;;;;;;4.00;3.70;;;20.00;99.90;;;;;;493970;241;28845;-70
2022/08/15 08:04:53;;;;;;;4.07;3.77;;;20.20;99.90;;;;;;493988;241;28931;-70
2022/08/15 08:06:55;;;;;;;4.30;3.93;;;20.30;99.90;;;;;;493982;241;28880;-72
2022/08/15 08:08:56;;;;;;;4.20;3.90;;;20.30;99.90;;;;;;494030;241;28804;-70
2022/08/15 08:10:57;;;;;;;5.00;4.50;;;20.00;99.90;;;;;;494033;241;28942;-70
2022/08/15 08:12:58;;;;;;;4.00;3.70;;;20.00;99.90;;;;;;494039;241;28842;-70
2022/08/15 08:15:02;;;;;;;4.77;4.27;;;20.10;99.90;;;;;;494034;241;29233;-70
2022/08/15 08:17:01;;;;;;;4.93;4.57;;;20.10;99.90;;;;;;493819;241;29337;-72
2022/08/15 08:19:03;;;;;;;4.60;4.03;;;20.10;99.90;;;;;;494050;241;29287;-70
2022/08/15 08:21:03;;;;;;;3.83;3.53;;;20.20;99.90;;;;;;494027;241;29318;-69
2022/08/15 08:23:05;;;;;;;4.00;3.70;;;20.30;99.90;;;;;;494006;241;28815;-69
2022/08/15 08:25:06;;;;;;;4.17;3.77;;;20.30;99.90;;;;;;494052;241;28804;-69
2022/08/15 08:27:07;;;;;;;3.63;3.43;;;20.30;99.90;;;;;;493937;241;28955;-70
2022/08/15 08:29:08;;;;;;;3.77;3.47;;;20.30;99.90;;;;;;494030;241;28813;-69
2022/08/15 08:31:11;;;;;;;3.33;3.13;;;20.20;99.90;;;;;;494025;241;28924;-70
2022/08/15 08:33:11;;;;;;;4.20;3.80;;;20.10;99.90;;;;;;493906;239;29212;-73
2022/08/15 08:35:12;;;;;;;4.20;3.90;;;19.90;99.90;;;;;;494037;241;28901;-70
2022/08/15 08:37:13;;;;;;;4.07;3.77;;;20.00;99.90;;;;;;493928;241;28848;-70
2022/08/15 08:39:15;;;;;;;4.33;4.03;;;20.10;99.90;;;;;;494036;241;29258;-69
2022/08/15 08:41:25;;;;;;;4.20;3.80;;;20.00;99.90;;;;;;494070;241;29309;-69
2022/08/15 08:43:26;;;;;;;3.83;3.53;;;20.00;99.90;;;;;;494026;241;28894;-70
2022/08/15 08:45:28;;;;;;;4.00;3.70;;;19.90;99.90;;;;;;494037;241;28836;-72
2022/08/15 08:47:29;;;;;;;4.50;4.10;;;19.80;99.90;;;;;;493949;241;28790;-69
2022/08/15 08:49:30;;;;;;;4.37;4.07;;;20.00;99.90;;;;;;494080;241;28832;-70
2022/08/15 08:51:31;;;;;;;4.47;4.17;;;20.10;99.90;;;;;;494080;241;28817;-69
2022/08/15 08:53:32;;;;;;;5.00;4.50;;;20.10;99.90;;;;;;494074;241;28899;-69
2022/08/15 08:55:34;;;;;;;4.20;3.80;;;20.10;99.90;;;;;;494105;241;28914;-71
2022/08/15 08:57:36;;;;;;;4.60;4.30;;;20.10;99.90;;;;;;493951;241;28797;-69
2022/08/15 08:59:36;;;;;;;4.97;4.57;;;20.20;99.90;;;;;;494003;241;28834;-70
2022/08/15 09:01:37;;;;;;;4.93;4.27;;;20.00;99.90;;;;;;494086;241;29487;-69
2022/08/15 09:03:39;;;;;;;4.10;3.80;;;20.00;99.90;;;;;;494065;241;29343;-69
2022/08/15 09:05:40;;;;;;;4.30;4.00;;;20.20;99.90;;;;;;494076;241;29393;-72
2022/08/15 09:07:41;;;;;;;4.00;3.70;;;20.30;99.90;;;;;;493950;241;28930;-70
2022/08/15 09:09:42;;;;;;;4.20;3.90;;;20.40;99.90;;;;;;494030;241;28912;-70
2022/08/15 09:11:44;;;;;;;3.57;3.27;;;20.70;99.90;;;;;;494027;241;28840;-69
2022/08/15 09:13:45;;;;;;;3.90;3.60;;;20.80;99.90;;;;;;494061;241;28803;-69
2022/08/15 09:15:46;;;;;;;4.00;3.70;;;20.60;99.90;;;;;;494052;241;28892;-73
2022/08/15 09:17:47;;;;;;;3.60;3.40;;;20.50;99.90;;;;;;493920;241;28876;-70
2022/08/15 09:19:50;;;;;;;3.73;3.43;;;20.50;99.90;;;;;;494048;241;28835;-70
2022/08/15 09:21:50;;;;;;;3.73;3.47;;;20.50;99.90;;;;;;493912;241;29219;-69
2022/08/15 09:23:51;;;;;;;3.97;3.67;;;20.40;99.90;;;;;;494033;241;29253;-69
2022/08/15 09:25:52;;;;;;;4.03;3.70;;;20.40;99.90;;;;;;494047;241;29375;-72
2022/08/15 09:27:54;;;;;;;3.70;3.40;;;20.40;99.90;;;;;;493915;239;29324;-69
2022/08/15 09:29:55;;;;;;;3.93;3.63;;;20.40;99.90;;;;;;494063;241;29278;-70
2022/08/15 09:31:57;;;;;;;3.30;3.10;;;20.50;99.90;;;;;;494071;241;28838;-70
2022/08/15 09:33:57;;;;;;;3.20;2.87;;;20.70;99.90;;;;;;494006;241;28829;-69
2022/08/15 09:35:59;;;;;;;3.27;3.00;;;20.80;99.90;;;;;;493858;241;28831;-79
2022/08/15 09:38:00;;;;;;;4.03;3.47;;;20.80;99.90;;;;;;493949;241;28951;-69
2022/08/15 09:40:01;;;;;;;3.50;3.20;;;20.90;99.90;;;;;;494035;241;28840;-69
2022/08/15 09:42:03;;;;;;;3.80;3.23;;;20.80;99.90;;;;;;494053;241;28897;-73
2022/08/15 09:44:04;;;;;;;3.03;2.83;;;21.00;99.90;;;;;;494041;241;28943;-69
2022/08/15 09:46:05;;;;;;;3.30;3.00;;;21.00;99.90;;;;;;494009;241;28867;-69
2022/08/15 09:48:06;;;;;;;3.60;3.10;;;21.00;99.90;;;;;;494046;241;29317;-69
2022/08/15 09:50:07;;;;;;;3.50;3.27;;;21.10;99.90;;;;;;493947;241;29387;-70
2022/08/15 09:52:09;;;;;;;3.40;3.10;;;21.20;99.90;;;;;;494064;241;29406;-73
2022/08/15 09:54:11;;;;;;;3.83;3.53;;;21.40;99.90;;;;;;493900;241;28851;-71
2022/08/15 09:56:11;;;;;;;3.10;2.90;;;21.50;99.90;;;;;;493592;241;28869;-71
2022/08/15 09:58:13;;;;;;;2.80;2.60;;;21.70;99.90;;;;;;494051;241;28786;-69
2022/08/15 10:00:16;;;;;;;2.90;2.63;;;21.80;99.90;;;;;;494047;241;28912;-71
2022/08/15 10:02:21;;;;;;;2.97;2.70;;;21.70;99.90;;;;;;494025;241;28867;-70
2022/08/15 10:04:19;;;;;;;3.33;3.00;;;21.60;99.90;;;;;;493740;241;28899;-70
2022/08/15 10:06:23;;;;;;;2.80;2.60;;;21.80;99.90;;;;;;493972;241;28909;-71
2022/08/15 10:08:23;;;;;;;3.10;2.90;;;22.00;99.90;;;;;;493821;241;28835;-72
2022/08/15 10:10:23;;;;;;;3.17;2.57;;;22.10;99.90;;;;;;493926;241;28805;-70
2022/08/15 10:12:24;;;;;;;2.70;2.50;;;22.00;99.90;;;;;;494057;241;29397;-69
2022/08/15 10:14:25;;;;;;;2.80;2.60;;;21.90;99.90;;;;;;494010;241;29270;-70
2022/08/15 10:16:26;;;;;;;3.40;3.17;;;21.90;99.90;;;;;;493979;241;29291;-69
2022/08/15 10:18:28;;;;;;;2.90;2.70;;;22.00;99.90;;;;;;494059;241;28855;-71
2022/08/15 10:20:29;;;;;;;3.43;3.23;;;21.90;99.90;;;;;;494063;241;28885;-70
2022/08/15 10:22:30;;;;;;;2.93;2.73;;;21.90;99.90;;;;;;494068;241;28834;-70
2022/08/15 10:24:32;;;;;;;2.83;2.63;;;22.10;99.90;;;;;;494050;237;28866;-70
2022/08/15 10:26:36;;;;;;;2.90;2.70;;;22.50;99.90;;;;;;494016;241;28894;-70
2022/08/15 10:28:34;;;;;;;2.87;2.67;;;22.90;99.90;;;;;;493738;241;28868;-74
2022/08/15 10:30:35;;;;;;;3.23;2.63;;;23.00;99.90;;;;;;494043;241;28906;-70
2022/08/15 10:32:40;;;;;;;2.97;2.67;;;23.10;99.90;;;;;;494026;241;28842;-70
2022/08/15 10:34:38;;;;;;;3.00;2.70;;;23.20;99.90;;;;;;493764;241;28834;-70